Sklinnabanken — LJQM — position and weather

sailwx.info

Track history (hours):
 
Tides and Currents Weather Stations Pressure Air Temp Water Temp Dewpoint Dewpoint Depression Visibility Wind Speed Wind Dir Waves Ship Positions

Sklinnabanken

Last reported at 2017-Feb-16 04:26 UTC. Time now 2017-Feb-27 22:51 UTC.
Position N 67°39' E 014°31'.
Warning: this ship's position is 11 days out of date.

Length 28 m; draft 6 m.

Type: Fishing. MMSI: 259648000.

Date/timePositionNaut miles runAvg speedWind from/ knotsBaromVisibWave heightAir tempDewpointWater temp
2017-Feb-16 04:26N 67°39' E 014°31'8 8.9
2017-Feb-16 03:33N 67°31' E 014°29'9 9.1
2017-Feb-16 02:33N 67°22' E 014°25'9 9.4
2017-Feb-16 01:33N 67°15' E 014°10'9 9.4
2017-Feb-16 00:33N 67°07' E 013°59'9 9.1
2017-Feb-15 23:33N 67°01' E 013°41'9 8.7
2017-Feb-15 22:33N 66°54' E 013°27'14 9.1
2017-Feb-15 21:03N 66°42' E 013°10'5 7.6
2017-Feb-15 20:22N 66°37' E 013°17'7 7.4
2017-Feb-15 19:25N 66°33' E 013°03'7 8.2
2017-Feb-15 18:33N 66°26' E 012°59'9 9.3
2017-Feb-15 17:33N 66°17' E 012°56'9 9.1
2017-Feb-15 16:33N 66°08' E 012°48'10 9.2
2017-Feb-15 15:25N 66°00' E 012°32'40 2.7
2017-Feb-15 00:17N 65°22' E 012°02'6 8.2
2017-Feb-14 23:32N 65°16' E 011°57'9 8.9
2017-Feb-14 22:33N 65°08' E 011°49'9 8.7
2017-Feb-14 21:33N 65°01' E 011°39'9 8.8
2017-Feb-14 20:34N 64°55' E 011°23'9 9.1
2017-Feb-14 19:33N 64°49' E 011°08'76 8.3
2017-Feb-14 10:29N 63°45' E 009°33'8 8.4
2017-Feb-14 09:33N 63°38' E 009°28'9 9.1
2017-Feb-14 08:33N 63°32' E 009°13'29 9.3
2017-Feb-14 05:30N 63°19' E 008°16'8 9.0
2017-Feb-14 04:33N 63°14' E 008°00'9 9.2
2017-Feb-14 03:33N 63°09' E 007°43'9 8.9
2017-Feb-14 02:33N 63°05' E 007°26'9 8.8
2017-Feb-14 01:33N 63°01' E 007°08'10 8.7
2017-Feb-14 00:25N 62°56' E 006°49'7 8.7
2017-Feb-13 23:33N 62°50' E 006°40'9 8.6
2017-Feb-13 22:33N 62°43' E 006°30'  
Track history (hours):
 
Tides and Currents Weather Stations Pressure Air Temp Water Temp Dewpoint Dewpoint Depression Visibility Wind Speed Wind Dir Waves Ship Positions

Sklinnabanken

Last reported at 2017-Feb-16 04:26 UTC. Time now 2017-Feb-27 22:51 UTC.
Position N 67°39' E 014°31'.
Warning: this ship's position is 11 days out of date.

Length 28 m; draft 6 m.

Type: Fishing. MMSI: 259648000.

Date/timePositionNaut miles runAvg speedWind from/ knotsBaromVisibWave heightAir tempDewpointWater temp
2017-Feb-16 04:26N 67°39' E 014°31'8 8.9
2017-Feb-16 03:33N 67°31' E 014°29'9 9.1
2017-Feb-16 02:33N 67°22' E 014°25'9 9.4
2017-Feb-16 01:33N 67°15' E 014°10'9 9.4
2017-Feb-16 00:33N 67°07' E 013°59'9 9.1
2017-Feb-15 23:33N 67°01' E 013°41'9 8.7
2017-Feb-15 22:33N 66°54' E 013°27'14 9.1
2017-Feb-15 21:03N 66°42' E 013°10'5 7.6
2017-Feb-15 20:22N 66°37' E 013°17'7 7.4
2017-Feb-15 19:25N 66°33' E 013°03'7 8.2
2017-Feb-15 18:33N 66°26' E 012°59'9 9.3
2017-Feb-15 17:33N 66°17' E 012°56'9 9.1
2017-Feb-15 16:33N 66°08' E 012°48'10 9.2
2017-Feb-15 15:25N 66°00' E 012°32'40 2.7
2017-Feb-15 00:17N 65°22' E 012°02'6 8.2
2017-Feb-14 23:32N 65°16' E 011°57'9 8.9
2017-Feb-14 22:33N 65°08' E 011°49'9 8.7
2017-Feb-14 21:33N 65°01' E 011°39'9 8.8
2017-Feb-14 20:34N 64°55' E 011°23'9 9.1
2017-Feb-14 19:33N 64°49' E 011°08'76 8.3
2017-Feb-14 10:29N 63°45' E 009°33'8 8.4
2017-Feb-14 09:33N 63°38' E 009°28'9 9.1
2017-Feb-14 08:33N 63°32' E 009°13'29 9.3
2017-Feb-14 05:30N 63°19' E 008°16'8 9.0
2017-Feb-14 04:33N 63°14' E 008°00'9 9.2
2017-Feb-14 03:33N 63°09' E 007°43'9 8.9
2017-Feb-14 02:33N 63°05' E 007°26'9 8.8
2017-Feb-14 01:33N 63°01' E 007°08'10 8.7
2017-Feb-14 00:25N 62°56' E 006°49'7 8.7
2017-Feb-13 23:33N 62°50' E 006°40'9 8.6
2017-Feb-13 22:33N 62°43' E 006°30'  

Dump ship's entire track history